sensor_id;sensor_type;location;lat;lon;timestamp;pressure;altitude;pressure_sealevel;temperature
14851;BMP180;7517;48.400;11.770;2022-10-16T00:01:50;96472.00;;;18.50
14851;BMP180;7517;48.400;11.770;2022-10-16T00:04:20;96472.00;;;18.40
14851;BMP180;7517;48.400;11.770;2022-10-16T00:06:53;96474.00;;;18.40
14851;BMP180;7517;48.400;11.770;2022-10-16T00:09:20;96474.00;;;18.30
14851;BMP180;7517;48.400;11.770;2022-10-16T00:11:47;96488.00;;;18.30
14851;BMP180;7517;48.400;11.770;2022-10-16T00:14:15;96490.00;;;18.20
14851;BMP180;7517;48.400;11.770;2022-10-16T00:16:45;96490.00;;;18.20
14851;BMP180;7517;48.400;11.770;2022-10-16T00:19:17;96494.00;;;18.20
14851;BMP180;7517;48.400;11.770;2022-10-16T00:21:44;96492.00;;;18.20
14851;BMP180;7517;48.400;11.770;2022-10-16T00:24:13;96493.00;;;18.10
14851;BMP180;7517;48.400;11.770;2022-10-16T00:26:40;96486.00;;;18.10
14851;BMP180;7517;48.400;11.770;2022-10-16T00:29:09;96489.00;;;18.10
14851;BMP180;7517;48.400;11.770;2022-10-16T00:31:37;96487.00;;;18.00
14851;BMP180;7517;48.400;11.770;2022-10-16T00:34:04;96487.00;;;18.00
14851;BMP180;7517;48.400;11.770;2022-10-16T00:36:33;96473.00;;;18.00
14851;BMP180;7517;48.400;11.770;2022-10-16T00:39:02;96473.00;;;18.00
14851;BMP180;7517;48.400;11.770;2022-10-16T00:41:31;96466.00;;;17.90
14851;BMP180;7517;48.400;11.770;2022-10-16T00:44:02;96466.00;;;17.90
14851;BMP180;7517;48.400;11.770;2022-10-16T00:46:38;96468.00;;;17.90
14851;BMP180;7517;48.400;11.770;2022-10-16T00:49:10;96472.00;;;17.90
14851;BMP180;7517;48.400;11.770;2022-10-16T00:51:46;96472.00;;;17.80
14851;BMP180;7517;48.400;11.770;2022-10-16T00:54:21;96476.00;;;17.80
14851;BMP180;7517;48.400;11.770;2022-10-16T00:56:50;96467.00;;;17.80
14851;BMP180;7517;48.400;11.770;2022-10-16T00:59:25;96475.00;;;17.80
14851;BMP180;7517;48.400;11.770;2022-10-16T01:01:55;96477.00;;;17.80
14851;BMP180;7517;48.400;11.770;2022-10-16T01:04:24;96485.00;;;17.70
14851;BMP180;7517;48.400;11.770;2022-10-16T01:07:06;96493.00;;;17.70
14851;BMP180;7517;48.400;11.770;2022-10-16T01:09:49;96488.00;;;17.70
14851;BMP180;7517;48.400;11.770;2022-10-16T01:12:40;96496.00;;;17.70
14851;BMP180;7517;48.400;11.770;2022-10-16T01:15:29;96485.00;;;17.70
14851;BMP180;7517;48.400;11.770;2022-10-16T01:18:10;96494.00;;;17.70
14851;BMP180;7517;48.400;11.770;2022-10-16T01:20:53;96492.00;;;17.70
14851;BMP180;7517;48.400;11.770;2022-10-16T01:23:55;96495.00;;;17.70
14851;BMP180;7517;48.400;11.770;2022-10-16T01:29:26;96501.00;;;17.70
14851;BMP180;7517;48.400;11.770;2022-10-16T01:32:01;96505.00;;;17.70
14851;BMP180;7517;48.400;11.770;2022-10-16T01:34:49;96511.00;;;17.60
14851;BMP180;7517;48.400;11.770;2022-10-16T01:37:39;96494.00;;;17.70
14851;BMP180;7517;48.400;11.770;2022-10-16T01:40:19;96495.00;;;17.60
14851;BMP180;7517;48.400;11.770;2022-10-16T01:42:56;96494.00;;;17.60
14851;BMP180;7517;48.400;11.770;2022-10-16T01:45:32;96494.00;;;17.60
14851;BMP180;7517;48.400;11.770;2022-10-16T01:48:04;96486.00;;;17.60
14851;BMP180;7517;48.400;11.770;2022-10-16T01:50:39;96490.00;;;17.60
14851;BMP180;7517;48.400;11.770;2022-10-16T01:53:15;96488.00;;;17.60
14851;BMP180;7517;48.400;11.770;2022-10-16T01:55:49;96490.00;;;17.60
14851;BMP180;7517;48.400;11.770;2022-10-16T01:58:26;96496.00;;;17.60
14851;BMP180;7517;48.400;11.770;2022-10-16T02:01:01;96498.00;;;17.60
14851;BMP180;7517;48.400;11.770;2022-10-16T02:03:28;96496.00;;;17.60
14851;BMP180;7517;48.400;11.770;2022-10-16T02:05:58;96501.00;;;17.60
14851;BMP180;7517;48.400;11.770;2022-10-16T02:08:28;96495.00;;;17.60
14851;BMP180;7517;48.400;11.770;2022-10-16T02:10:59;96496.00;;;17.60
14851;BMP180;7517;48.400;11.770;2022-10-16T02:13:33;96490.00;;;17.60
14851;BMP180;7517;48.400;11.770;2022-10-16T02:16:11;96472.00;;;17.60
14851;BMP180;7517;48.400;11.770;2022-10-16T02:18:45;96475.00;;;17.60
14851;BMP180;7517;48.400;11.770;2022-10-16T02:21:23;96497.00;;;17.60
14851;BMP180;7517;48.400;11.770;2022-10-16T02:24:00;96511.00;;;17.60
14851;BMP180;7517;48.400;11.770;2022-10-16T02:26:45;96513.00;;;17.60
14851;BMP180;7517;48.400;11.770;2022-10-16T02:29:20;96522.00;;;17.60
14851;BMP180;7517;48.400;11.770;2022-10-16T02:31:56;96516.00;;;17.60
14851;BMP180;7517;48.400;11.770;2022-10-16T02:34:28;96513.00;;;17.60
14851;BMP180;7517;48.400;11.770;2022-10-16T02:36:59;96510.00;;;17.60
14851;BMP180;7517;48.400;11.770;2022-10-16T02:39:32;96509.00;;;17.60
14851;BMP180;7517;48.400;11.770;2022-10-16T02:42:02;96518.00;;;17.50
14851;BMP180;7517;48.400;11.770;2022-10-16T02:44:35;96509.00;;;17.50
14851;BMP180;7517;48.400;11.770;2022-10-16T02:47:03;96515.00;;;17.50
14851;BMP180;7517;48.400;11.770;2022-10-16T02:49:32;96518.00;;;17.50
14851;BMP180;7517;48.400;11.770;2022-10-16T02:52:00;96526.00;;;17.50
14851;BMP180;7517;48.400;11.770;2022-10-16T02:54:29;96523.00;;;17.40
14851;BMP180;7517;48.400;11.770;2022-10-16T02:56:56;96514.00;;;17.40
14851;BMP180;7517;48.400;11.770;2022-10-16T02:59:26;96501.00;;;17.40
14851;BMP180;7517;48.400;11.770;2022-10-16T03:01:59;96492.00;;;17.30
14851;BMP180;7517;48.400;11.770;2022-10-16T03:04:27;96491.00;;;17.30
14851;BMP180;7517;48.400;11.770;2022-10-16T03:07:00;96493.00;;;17.30
14851;BMP180;7517;48.400;11.770;2022-10-16T03:09:29;96501.00;;;17.30
14851;BMP180;7517;48.400;11.770;2022-10-16T03:11:59;96507.00;;;17.20
14851;BMP180;7517;48.400;11.770;2022-10-16T03:14:29;96501.00;;;17.20
14851;BMP180;7517;48.400;11.770;2022-10-16T03:16:56;96507.00;;;17.20
14851;BMP180;7517;48.400;11.770;2022-10-16T03:19:29;96507.00;;;17.20
14851;BMP180;7517;48.400;11.770;2022-10-16T03:22:03;96508.00;;;17.20
14851;BMP180;7517;48.400;11.770;2022-10-16T03:24:33;96506.00;;;17.20
14851;BMP180;7517;48.400;11.770;2022-10-16T03:27:05;96514.00;;;17.20
14851;BMP180;7517;48.400;11.770;2022-10-16T03:29:36;96523.00;;;17.10
14851;BMP180;7517;48.400;11.770;2022-10-16T03:32:04;96515.00;;;17.10
14851;BMP180;7517;48.400;11.770;2022-10-16T03:34:35;96507.00;;;17.10
14851;BMP180;7517;48.400;11.770;2022-10-16T03:37:02;96515.00;;;17.10
14851;BMP180;7517;48.400;11.770;2022-10-16T03:39:30;96513.00;;;17.10
14851;BMP180;7517;48.400;11.770;2022-10-16T03:41:57;96510.00;;;17.00
14851;BMP180;7517;48.400;11.770;2022-10-16T03:44:24;96510.00;;;17.00
14851;BMP180;7517;48.400;11.770;2022-10-16T03:46:51;96514.00;;;17.00
14851;BMP180;7517;48.400;11.770;2022-10-16T03:49:18;96514.00;;;17.00
14851;BMP180;7517;48.400;11.770;2022-10-16T03:51:46;96511.00;;;17.00
14851;BMP180;7517;48.400;11.770;2022-10-16T03:54:14;96523.00;;;17.00
14851;BMP180;7517;48.400;11.770;2022-10-16T03:56:41;96522.00;;;17.00
14851;BMP180;7517;48.400;11.770;2022-10-16T03:59:11;96518.00;;;17.00
14851;BMP180;7517;48.400;11.770;2022-10-16T04:01:41;96525.00;;;17.00
14851;BMP180;7517;48.400;11.770;2022-10-16T04:04:08;96526.00;;;17.00
14851;BMP180;7517;48.400;11.770;2022-10-16T04:06:43;96531.00;;;17.00
14851;BMP180;7517;48.400;11.770;2022-10-16T04:09:20;96534.00;;;17.00
14851;BMP180;7517;48.400;11.770;2022-10-16T04:11:48;96532.00;;;17.00
14851;BMP180;7517;48.400;11.770;2022-10-16T04:14:16;96541.00;;;17.10
14851;BMP180;7517;48.400;11.770;2022-10-16T04:16:44;96543.00;;;17.10
14851;BMP180;7517;48.400;11.770;2022-10-16T04:19:14;96536.00;;;17.10
14851;BMP180;7517;48.400;11.770;2022-10-16T04:21:43;96546.00;;;17.10
14851;BMP180;7517;48.400;11.770;2022-10-16T04:24:12;96537.00;;;17.10
14851;BMP180;7517;48.400;11.770;2022-10-16T04:26:42;96532.00;;;17.20
14851;BMP180;7517;48.400;11.770;2022-10-16T04:29:09;96531.00;;;17.20
14851;BMP180;7517;48.400;11.770;2022-10-16T04:31:36;96542.00;;;17.20
14851;BMP180;7517;48.400;11.770;2022-10-16T04:34:03;96549.00;;;17.30
14851;BMP180;7517;48.400;11.770;2022-10-16T04:36:33;96537.00;;;17.30
14851;BMP180;7517;48.400;11.770;2022-10-16T04:39:01;96528.00;;;17.30
14851;BMP180;7517;48.400;11.770;2022-10-16T04:41:29;96525.00;;;17.30
14851;BMP180;7517;48.400;11.770;2022-10-16T04:43:58;96528.00;;;17.30
14851;BMP180;7517;48.400;11.770;2022-10-16T04:46:25;96528.00;;;17.40
14851;BMP180;7517;48.400;11.770;2022-10-16T04:48:54;96516.00;;;17.40
14851;BMP180;7517;48.400;11.770;2022-10-16T04:51:26;96518.00;;;17.40
14851;BMP180;7517;48.400;11.770;2022-10-16T04:53:55;96525.00;;;17.40
14851;BMP180;7517;48.400;11.770;2022-10-16T04:56:27;96529.00;;;17.40
14851;BMP180;7517;48.400;11.770;2022-10-16T04:58:54;96535.00;;;17.40
14851;BMP180;7517;48.400;11.770;2022-10-16T05:01:25;96537.00;;;17.40
14851;BMP180;7517;48.400;11.770;2022-10-16T05:03:52;96541.00;;;17.50
14851;BMP180;7517;48.400;11.770;2022-10-16T05:06:20;96545.00;;;17.50
14851;BMP180;7517;48.400;11.770;2022-10-16T05:08:53;96548.00;;;17.50
14851;BMP180;7517;48.400;11.770;2022-10-16T05:11:20;96551.00;;;17.50
14851;BMP180;7517;48.400;11.770;2022-10-16T05:13:51;96546.00;;;17.50
14851;BMP180;7517;48.400;11.770;2022-10-16T05:16:24;96553.00;;;17.50
14851;BMP180;7517;48.400;11.770;2022-10-16T05:18:58;96550.00;;;17.50
14851;BMP180;7517;48.400;11.770;2022-10-16T05:21:39;96543.00;;;17.50
14851;BMP180;7517;48.400;11.770;2022-10-16T05:24:07;96544.00;;;17.50
14851;BMP180;7517;48.400;11.770;2022-10-16T05:26:37;96536.00;;;17.60
14851;BMP180;7517;48.400;11.770;2022-10-16T05:29:04;96528.00;;;17.60
14851;BMP180;7517;48.400;11.770;2022-10-16T05:31:35;96533.00;;;17.60
14851;BMP180;7517;48.400;11.770;2022-10-16T05:34:04;96527.00;;;17.60
14851;BMP180;7517;48.400;11.770;2022-10-16T05:36:40;96530.00;;;17.60
14851;BMP180;7517;48.400;11.770;2022-10-16T05:39:20;96530.00;;;17.60
14851;BMP180;7517;48.400;11.770;2022-10-16T05:41:50;96533.00;;;17.60
14851;BMP180;7517;48.400;11.770;2022-10-16T05:44:27;96552.00;;;17.60
14851;BMP180;7517;48.400;11.770;2022-10-16T05:47:04;96559.00;;;17.60
14851;BMP180;7517;48.400;11.770;2022-10-16T05:49:43;96561.00;;;17.60
14851;BMP180;7517;48.400;11.770;2022-10-16T05:52:20;96560.00;;;17.60
14851;BMP180;7517;48.400;11.770;2022-10-16T05:54:51;96563.00;;;17.60
14851;BMP180;7517;48.400;11.770;2022-10-16T05:57:27;96560.00;;;17.60
14851;BMP180;7517;48.400;11.770;2022-10-16T05:59:57;96559.00;;;17.60
14851;BMP180;7517;48.400;11.770;2022-10-16T06:02:28;96558.00;;;17.60
14851;BMP180;7517;48.400;11.770;2022-10-16T06:05:00;96561.00;;;17.60
14851;BMP180;7517;48.400;11.770;2022-10-16T06:07:40;96564.00;;;17.60
14851;BMP180;7517;48.400;11.770;2022-10-16T06:10:11;96562.00;;;17.60
14851;BMP180;7517;48.400;11.770;2022-10-16T06:12:50;96562.00;;;17.60
14851;BMP180;7517;48.400;11.770;2022-10-16T06:15:18;96565.00;;;17.60
14851;BMP180;7517;48.400;11.770;2022-10-16T06:17:47;96568.00;;;17.60
14851;BMP180;7517;48.400;11.770;2022-10-16T06:20:14;96575.00;;;17.60
14851;BMP180;7517;48.400;11.770;2022-10-16T06:22:44;96578.00;;;17.60
14851;BMP180;7517;48.400;11.770;2022-10-16T06:25:21;96580.00;;;17.50
14851;BMP180;7517;48.400;11.770;2022-10-16T06:27:51;96587.00;;;17.60
14851;BMP180;7517;48.400;11.770;2022-10-16T06:30:23;96579.00;;;17.50
14851;BMP180;7517;48.400;11.770;2022-10-16T06:33:00;96588.00;;;17.50
14851;BMP180;7517;48.400;11.770;2022-10-16T06:35:29;96595.00;;;17.50
14851;BMP180;7517;48.400;11.770;2022-10-16T06:38:00;96606.00;;;17.50
14851;BMP180;7517;48.400;11.770;2022-10-16T06:40:33;96610.00;;;17.50
14851;BMP180;7517;48.400;11.770;2022-10-16T06:43:07;96610.00;;;17.50
14851;BMP180;7517;48.400;11.770;2022-10-16T06:45:34;96607.00;;;17.50
14851;BMP180;7517;48.400;11.770;2022-10-16T06:48:06;96620.00;;;17.50
14851;BMP180;7517;48.400;11.770;2022-10-16T06:50:33;96623.00;;;17.40
14851;BMP180;7517;48.400;11.770;2022-10-16T06:53:03;96631.00;;;17.40
14851;BMP180;7517;48.400;11.770;2022-10-16T06:55:32;96624.00;;;17.40
14851;BMP180;7517;48.400;11.770;2022-10-16T06:57:59;96636.00;;;17.50
14851;BMP180;7517;48.400;11.770;2022-10-16T07:00:32;96628.00;;;17.50
14851;BMP180;7517;48.400;11.770;2022-10-16T07:03:04;96631.00;;;17.60
14851;BMP180;7517;48.400;11.770;2022-10-16T07:05:37;96625.00;;;17.60
14851;BMP180;7517;48.400;11.770;2022-10-16T07:08:08;96629.00;;;17.70
14851;BMP180;7517;48.400;11.770;2022-10-16T07:10:38;96634.00;;;17.80
14851;BMP180;7517;48.400;11.770;2022-10-16T07:13:05;96638.00;;;17.80
14851;BMP180;7517;48.400;11.770;2022-10-16T07:15:33;96638.00;;;17.90
14851;BMP180;7517;48.400;11.770;2022-10-16T07:18:05;96638.00;;;17.90
14851;BMP180;7517;48.400;11.770;2022-10-16T07:20:32;96642.00;;;18.00
14851;BMP180;7517;48.400;11.770;2022-10-16T07:23:02;96646.00;;;18.00
14851;BMP180;7517;48.400;11.770;2022-10-16T07:25:29;96647.00;;;18.00
14851;BMP180;7517;48.400;11.770;2022-10-16T07:27:59;96651.00;;;18.10
14851;BMP180;7517;48.400;11.770;2022-10-16T07:30:31;96655.00;;;18.10
14851;BMP180;7517;48.400;11.770;2022-10-16T07:33:01;96662.00;;;18.10
14851;BMP180;7517;48.400;11.770;2022-10-16T07:35:34;96665.00;;;18.20
14851;BMP180;7517;48.400;11.770;2022-10-16T07:38:02;96656.00;;;18.20
14851;BMP180;7517;48.400;11.770;2022-10-16T07:40:29;96660.00;;;18.20
14851;BMP180;7517;48.400;11.770;2022-10-16T07:42:56;96670.00;;;18.30
14851;BMP180;7517;48.400;11.770;2022-10-16T07:45:23;96676.00;;;18.40
14851;BMP180;7517;48.400;11.770;2022-10-16T07:47:51;96682.00;;;18.40
14851;BMP180;7517;48.400;11.770;2022-10-16T07:50:18;96690.00;;;18.50
14851;BMP180;7517;48.400;11.770;2022-10-16T07:52:49;96682.00;;;18.60
14851;BMP180;7517;48.400;11.770;2022-10-16T07:55:17;96686.00;;;18.70
14851;BMP180;7517;48.400;11.770;2022-10-16T07:57:44;96686.00;;;18.80
14851;BMP180;7517;48.400;11.770;2022-10-16T08:00:13;96691.00;;;18.90
14851;BMP180;7517;48.400;11.770;2022-10-16T08:02:43;96690.00;;;19.00
14851;BMP180;7517;48.400;11.770;2022-10-16T08:05:11;96697.00;;;19.10
14851;BMP180;7517;48.400;11.770;2022-10-16T08:07:55;96690.00;;;19.20
14851;BMP180;7517;48.400;11.770;2022-10-16T08:10:29;96690.00;;;19.40
14851;BMP180;7517;48.400;11.770;2022-10-16T08:13:05;96694.00;;;19.50
14851;BMP180;7517;48.400;11.770;2022-10-16T08:15:33;96698.00;;;19.70
14851;BMP180;7517;48.400;11.770;2022-10-16T08:18:05;96701.00;;;19.80
14851;BMP180;7517;48.400;11.770;2022-10-16T08:20:34;96705.00;;;20.00
14851;BMP180;7517;48.400;11.770;2022-10-16T08:23:03;96700.00;;;20.10
14851;BMP180;7517;48.400;11.770;2022-10-16T08:25:30;96706.00;;;20.30
14851;BMP180;7517;48.400;11.770;2022-10-16T08:27:58;96708.00;;;20.40
14851;BMP180;7517;48.400;11.770;2022-10-16T08:30:25;96713.00;;;20.50
14851;BMP180;7517;48.400;11.770;2022-10-16T08:32:52;96715.00;;;20.70
14851;BMP180;7517;48.400;11.770;2022-10-16T08:35:20;96714.00;;;20.80
14851;BMP180;7517;48.400;11.770;2022-10-16T08:37:50;96713.00;;;20.90
14851;BMP180;7517;48.400;11.770;2022-10-16T08:40:32;96720.00;;;21.00
14851;BMP180;7517;48.400;11.770;2022-10-16T08:43:26;96724.00;;;21.20
14851;BMP180;7517;48.400;11.770;2022-10-16T08:46:24;96725.00;;;21.30
14851;BMP180;7517;48.400;11.770;2022-10-16T08:48:59;96734.00;;;21.50
14851;BMP180;7517;48.400;11.770;2022-10-16T08:51:37;96733.00;;;21.60
14851;BMP180;7517;48.400;11.770;2022-10-16T08:54:11;96744.00;;;21.70
14851;BMP180;7517;48.400;11.770;2022-10-16T08:56:47;96741.00;;;21.90
14851;BMP180;7517;48.400;11.770;2022-10-16T08:59:16;96748.00;;;22.00
14851;BMP180;7517;48.400;11.770;2022-10-16T09:01:48;96751.00;;;22.20
14851;BMP180;7517;48.400;11.770;2022-10-16T09:04:48;96744.00;;;22.30
14851;BMP180;7517;48.400;11.770;2022-10-16T09:07:26;96753.00;;;22.40
14851;BMP180;7517;48.400;11.770;2022-10-16T09:10:14;96748.00;;;22.60
14851;BMP180;7517;48.400;11.770;2022-10-16T09:12:55;96741.00;;;22.70
14851;BMP180;7517;48.400;11.770;2022-10-16T09:15:33;96739.00;;;22.80
14851;BMP180;7517;48.400;11.770;2022-10-16T09:18:12;96748.00;;;22.90
14851;BMP180;7517;48.400;11.770;2022-10-16T09:20:49;96752.00;;;23.10
14851;BMP180;7517;48.400;11.770;2022-10-16T09:23:22;96749.00;;;23.20
14851;BMP180;7517;48.400;11.770;2022-10-16T09:25:55;96748.00;;;23.40
14851;BMP180;7517;48.400;11.770;2022-10-16T09:28:25;96750.00;;;23.60
14851;BMP180;7517;48.400;11.770;2022-10-16T09:30:52;96748.00;;;23.70
14851;BMP180;7517;48.400;11.770;2022-10-16T09:33:25;96749.00;;;23.90
14851;BMP180;7517;48.400;11.770;2022-10-16T09:35:56;96750.00;;;24.00
14851;BMP180;7517;48.400;11.770;2022-10-16T09:38:29;96756.00;;;24.10
14851;BMP180;7517;48.400;11.770;2022-10-16T09:41:00;96760.00;;;24.30
14851;BMP180;7517;48.400;11.770;2022-10-16T09:43:34;96758.00;;;24.40
14851;BMP180;7517;48.400;11.770;2022-10-16T09:46:07;96773.00;;;24.50
14851;BMP180;7517;48.400;11.770;2022-10-16T09:48:38;96770.00;;;24.70
14851;BMP180;7517;48.400;11.770;2022-10-16T09:51:25;96779.00;;;24.80
14851;BMP180;7517;48.400;11.770;2022-10-16T09:53:58;96777.00;;;24.90
14851;BMP180;7517;48.400;11.770;2022-10-16T09:56:29;96784.00;;;25.10
14851;BMP180;7517;48.400;11.770;2022-10-16T09:59:07;96788.00;;;25.20
14851;BMP180;7517;48.400;11.770;2022-10-16T10:01:39;96786.00;;;25.40
14851;BMP180;7517;48.400;11.770;2022-10-16T10:04:08;96783.00;;;25.50
14851;BMP180;7517;48.400;11.770;2022-10-16T10:06:43;96789.00;;;25.70
14851;BMP180;7517;48.400;11.770;2022-10-16T10:09:20;96775.00;;;25.80
14851;BMP180;7517;48.400;11.770;2022-10-16T10:11:55;96785.00;;;26.00
14851;BMP180;7517;48.400;11.770;2022-10-16T10:14:32;96785.00;;;26.10
14851;BMP180;7517;48.400;11.770;2022-10-16T10:17:15;96790.00;;;26.20
14851;BMP180;7517;48.400;11.770;2022-10-16T10:19:48;96788.00;;;26.40
14851;BMP180;7517;48.400;11.770;2022-10-16T10:22:27;96792.00;;;26.50
14851;BMP180;7517;48.400;11.770;2022-10-16T10:25:14;96786.00;;;26.60
14851;BMP180;7517;48.400;11.770;2022-10-16T10:30:49;96787.00;;;26.80
14851;BMP180;7517;48.400;11.770;2022-10-16T10:33:30;96787.00;;;26.90
14851;BMP180;7517;48.400;11.770;2022-10-16T10:36:13;96776.00;;;26.80
14851;BMP180;7517;48.400;11.770;2022-10-16T10:38:50;96787.00;;;26.80
14851;BMP180;7517;48.400;11.770;2022-10-16T10:42:01;96782.00;;;26.80
14851;BMP180;7517;48.400;11.770;2022-10-16T10:44:55;96780.00;;;26.70
14851;BMP180;7517;48.400;11.770;2022-10-16T10:47:38;96786.00;;;26.70
14851;BMP180;7517;48.400;11.770;2022-10-16T10:50:19;96784.00;;;26.60
14851;BMP180;7517;48.400;11.770;2022-10-16T10:52:59;96793.00;;;26.60
14851;BMP180;7517;48.400;11.770;2022-10-16T10:55:40;96782.00;;;26.50
14851;BMP180;7517;48.400;11.770;2022-10-16T10:58:49;96780.00;;;26.50
14851;BMP180;7517;48.400;11.770;2022-10-16T11:01:26;96785.00;;;26.40
14851;BMP180;7517;48.400;11.770;2022-10-16T11:04:38;96776.00;;;26.40
14851;BMP180;7517;48.400;11.770;2022-10-16T11:07:15;96773.00;;;26.30
14851;BMP180;7517;48.400;11.770;2022-10-16T11:09:48;96769.00;;;26.30
14851;BMP180;7517;48.400;11.770;2022-10-16T11:12:20;96772.00;;;26.30
14851;BMP180;7517;48.400;11.770;2022-10-16T11:14:57;96772.00;;;26.30
14851;BMP180;7517;48.400;11.770;2022-10-16T11:17:29;96767.00;;;26.30
14851;BMP180;7517;48.400;11.770;2022-10-16T11:20:12;96766.00;;;26.30
14851;BMP180;7517;48.400;11.770;2022-10-16T11:22:47;96771.00;;;26.30
14851;BMP180;7517;48.400;11.770;2022-10-16T11:25:21;96775.00;;;26.30
14851;BMP180;7517;48.400;11.770;2022-10-16T11:27:55;96776.00;;;26.30
14851;BMP180;7517;48.400;11.770;2022-10-16T11:30:26;96775.00;;;26.30
14851;BMP180;7517;48.400;11.770;2022-10-16T11:33:18;96772.00;;;26.30
14851;BMP180;7517;48.400;11.770;2022-10-16T11:35:53;96784.00;;;26.30
14851;BMP180;7517;48.400;11.770;2022-10-16T11:38:29;96784.00;;;26.30
14851;BMP180;7517;48.400;11.770;2022-10-16T11:41:04;96780.00;;;26.30
14851;BMP180;7517;48.400;11.770;2022-10-16T11:43:41;96793.00;;;26.40
14851;BMP180;7517;48.400;11.770;2022-10-16T11:46:16;96788.00;;;26.40
14851;BMP180;7517;48.400;11.770;2022-10-16T11:48:51;96785.00;;;26.40
14851;BMP180;7517;48.400;11.770;2022-10-16T11:51:33;96786.00;;;26.30
14851;BMP180;7517;48.400;11.770;2022-10-16T11:54:16;96776.00;;;26.40
14851;BMP180;7517;48.400;11.770;2022-10-16T11:56:50;96777.00;;;26.40
14851;BMP180;7517;48.400;11.770;2022-10-16T11:59:28;96771.00;;;26.40
14851;BMP180;7517;48.400;11.770;2022-10-16T12:02:32;96774.00;;;26.40
14851;BMP180;7517;48.400;11.770;2022-10-16T12:05:14;96773.00;;;26.50
14851;BMP180;7517;48.400;11.770;2022-10-16T12:08:01;96772.00;;;26.50
14851;BMP180;7517;48.400;11.770;2022-10-16T12:10:30;96774.00;;;26.50
14851;BMP180;7517;48.400;11.770;2022-10-16T12:13:03;96767.00;;;26.50
14851;BMP180;7517;48.400;11.770;2022-10-16T12:15:33;96771.00;;;26.50
14851;BMP180;7517;48.400;11.770;2022-10-16T12:18:01;96759.00;;;26.50
14851;BMP180;7517;48.400;11.770;2022-10-16T12:20:30;96769.00;;;26.50
14851;BMP180;7517;48.400;11.770;2022-10-16T12:23:02;96772.00;;;26.60
14851;BMP180;7517;48.400;11.770;2022-10-16T12:25:33;96773.00;;;26.60
14851;BMP180;7517;48.400;11.770;2022-10-16T12:28:04;96773.00;;;26.60
14851;BMP180;7517;48.400;11.770;2022-10-16T12:30:35;96776.00;;;26.70
14851;BMP180;7517;48.400;11.770;2022-10-16T12:33:06;96778.00;;;26.70
14851;BMP180;7517;48.400;11.770;2022-10-16T12:35:44;96774.00;;;26.70
14851;BMP180;7517;48.400;11.770;2022-10-16T12:38:19;96771.00;;;26.80
14851;BMP180;7517;48.400;11.770;2022-10-16T12:40:58;96772.00;;;26.80
14851;BMP180;7517;48.400;11.770;2022-10-16T12:43:36;96769.00;;;26.90
14851;BMP180;7517;48.400;11.770;2022-10-16T12:46:22;96768.00;;;26.90
14851;BMP180;7517;48.400;11.770;2022-10-16T12:48:49;96762.00;;;27.00
14851;BMP180;7517;48.400;11.770;2022-10-16T12:51:33;96759.00;;;27.00
14851;BMP180;7517;48.400;11.770;2022-10-16T12:54:04;96765.00;;;27.10
14851;BMP180;7517;48.400;11.770;2022-10-16T12:56:44;96769.00;;;27.10
14851;BMP180;7517;48.400;11.770;2022-10-16T12:59:28;96769.00;;;27.20
14851;BMP180;7517;48.400;11.770;2022-10-16T13:02:26;96775.00;;;27.20
14851;BMP180;7517;48.400;11.770;2022-10-16T13:05:32;96768.00;;;27.20
14851;BMP180;7517;48.400;11.770;2022-10-16T13:08:29;96772.00;;;27.20
14851;BMP180;7517;48.400;11.770;2022-10-16T13:11:15;96770.00;;;27.20
14851;BMP180;7517;48.400;11.770;2022-10-16T13:14:09;96775.00;;;27.20
14851;BMP180;7517;48.400;11.770;2022-10-16T13:16:57;96774.00;;;27.20
14851;BMP180;7517;48.400;11.770;2022-10-16T13:19:37;96778.00;;;27.20
14851;BMP180;7517;48.400;11.770;2022-10-16T13:22:27;96780.00;;;27.10
14851;BMP180;7517;48.400;11.770;2022-10-16T13:25:16;96783.00;;;27.20
14851;BMP180;7517;48.400;11.770;2022-10-16T13:27:55;96784.00;;;27.20
14851;BMP180;7517;48.400;11.770;2022-10-16T13:30:26;96788.00;;;27.20
14851;BMP180;7517;48.400;11.770;2022-10-16T13:33:01;96782.00;;;27.20
14851;BMP180;7517;48.400;11.770;2022-10-16T13:35:34;96791.00;;;27.20
14851;BMP180;7517;48.400;11.770;2022-10-16T13:38:13;96789.00;;;27.20
14851;BMP180;7517;48.400;11.770;2022-10-16T13:40:53;96799.00;;;27.20
14851;BMP180;7517;48.400;11.770;2022-10-16T13:43:27;96790.00;;;27.20
14851;BMP180;7517;48.400;11.770;2022-10-16T13:45:58;96799.00;;;27.20
14851;BMP180;7517;48.400;11.770;2022-10-16T13:48:26;96796.00;;;27.20
14851;BMP180;7517;48.400;11.770;2022-10-16T13:51:05;96790.00;;;27.20
14851;BMP180;7517;48.400;11.770;2022-10-16T13:53:34;96801.00;;;27.20
14851;BMP180;7517;48.400;11.770;2022-10-16T13:56:05;96804.00;;;27.20
14851;BMP180;7517;48.400;11.770;2022-10-16T13:58:34;96808.00;;;27.20
14851;BMP180;7517;48.400;11.770;2022-10-16T14:01:04;96802.00;;;27.20
14851;BMP180;7517;48.400;11.770;2022-10-16T14:03:33;96804.00;;;27.20
14851;BMP180;7517;48.400;11.770;2022-10-16T14:06:05;96801.00;;;27.20
14851;BMP180;7517;48.400;11.770;2022-10-16T14:08:34;96807.00;;;27.20
14851;BMP180;7517;48.400;11.770;2022-10-16T14:11:02;96800.00;;;27.20
14851;BMP180;7517;48.400;11.770;2022-10-16T14:13:34;96809.00;;;27.20
14851;BMP180;7517;48.400;11.770;2022-10-16T14:16:07;96803.00;;;27.20
14851;BMP180;7517;48.400;11.770;2022-10-16T14:18:38;96809.00;;;27.20
14851;BMP180;7517;48.400;11.770;2022-10-16T14:21:12;96812.00;;;27.20
14851;BMP180;7517;48.400;11.770;2022-10-16T14:23:42;96808.00;;;27.20
14851;BMP180;7517;48.400;11.770;2022-10-16T14:26:15;96809.00;;;27.20
14851;BMP180;7517;48.400;11.770;2022-10-16T14:28:46;96805.00;;;27.20
14851;BMP180;7517;48.400;11.770;2022-10-16T14:31:30;96804.00;;;27.10
14851;BMP180;7517;48.400;11.770;2022-10-16T14:33:59;96799.00;;;27.10
14851;BMP180;7517;48.400;11.770;2022-10-16T14:36:28;96804.00;;;27.10
14851;BMP180;7517;48.400;11.770;2022-10-16T14:39:03;96802.00;;;27.10
14851;BMP180;7517;48.400;11.770;2022-10-16T14:41:33;96807.00;;;27.10
14851;BMP180;7517;48.400;11.770;2022-10-16T14:44:12;96800.00;;;27.10
14851;BMP180;7517;48.400;11.770;2022-10-16T14:46:42;96797.00;;;27.00
14851;BMP180;7517;48.400;11.770;2022-10-16T14:49:17;96792.00;;;27.00
14851;BMP180;7517;48.400;11.770;2022-10-16T14:51:47;96798.00;;;27.00
14851;BMP180;7517;48.400;11.770;2022-10-16T14:54:16;96810.00;;;27.00